Stillwater, NJ (07875)

2:42 PM EST on January 25, 2015 (GMT -0500)
Crandon Lakes | Change Station
CLOSE
Current Station
Personal Weather Station
Location: Newton, NJ
Elevation: 869 ft
Nearby Weather Stations
Active Advisory: Winter Storm Watch

Elev 869 ft 41.13 °N, 74.84 °W | Updated 2 seconds ago

Partly Cloudy
Partly Cloudy
33.0 °F
Feels Like 24 °F
N
12.0
Wind Variable Wind from NW
Gusts 20.0 mph

Today
High -- | Low -- °F
--% Chance of Precip.
Yesterday
High -- | Low -- °F
Precip. -- in
7:16 AM 5:07 PM
Waxing Crescent, 35% visible
Pressure 29.80 in
Visibility 10.0 miles
Clouds Clear
Windchill 24 °F
Dew Point 14 °F
Humidity 40%
Rainfall 0.00 in
Snow Depth Not available.
UV 2 out of 12
Pollen .10 out of 12
Air Quality Not available.
Flu Activity Not available.
METAR KFWN 251853Z AUTO 32009G15KT 10SM CLR 03/M13 A2979 RMK AO2 SLP090 T00281133

More Conditions Fewer Conditions

Pressure 29.80 in
Visibility 10.0 miles
Clouds Clear
Windchill 24 °F
Dew Point 14 °F
Humidity 40%
Rainfall 0.00 in
Snow Depth Not available.
UV 2 out of 12
Pollen .10 out of 12
Air Quality Not available.
Flu Activity Not available.
METAR KFWN 251853Z AUTO 32009G15KT 10SM CLR 03/M13 A2979 RMK AO2 SLP090 T00281133

More Conditions Fewer Conditions

10-Day Weather Forecast

Almanac

Astronomy

Jan. 25, 2015 Rise Set
Actual Time
Civil Twilight
Nautical Twilight
Astronomical Twilight
Moon
Length of Visible Light
Length of Day
Tomorrow will be .
, % of the Moon is Illuminated

Today's Extremes

State Highs State Lows

Community

WunderPhotos

Upload Photos

1,790,030 photos uploaded!

WunderBlogs® & News

Nearby

Air Quality

  Air Quality AQ Index Pollutant
Not available.

Snow Depth

Station Depth Elevation

Earthquake Activity

City Distance Mag. Time & Date
Minimum magnitude displayed is 2.5.

Coastal Water Temperatures

Place Temperature

Nearby Weather Stations